sensor_id;sensor_type;location;lat;lon;timestamp;pressure;altitude;pressure_sealevel;temperature;humidity
40650;BME280;26342;42.826;23.992;2022-11-15T00:00:51;95996.72;;;3.61;100.00
40650;BME280;26342;42.826;23.992;2022-11-15T00:03:19;95995.09;;;3.60;100.00
40650;BME280;26342;42.826;23.992;2022-11-15T00:05:45;95993.28;;;3.61;100.00
40650;BME280;26342;42.826;23.992;2022-11-15T00:08:10;95992.09;;;3.70;100.00
40650;BME280;26342;42.826;23.992;2022-11-15T00:10:37;95992.91;;;3.77;100.00
40650;BME280;26342;42.826;23.992;2022-11-15T00:13:10;95990.28;;;3.77;100.00
40650;BME280;26342;42.826;23.992;2022-11-15T00:15:40;95992.53;;;3.80;100.00
40650;BME280;26342;42.826;23.992;2022-11-15T00:18:11;95984.59;;;3.87;100.00
40650;BME280;26342;42.826;23.992;2022-11-15T00:20:37;95996.03;;;4.07;100.00
40650;BME280;26342;42.826;23.992;2022-11-15T00:23:04;95992.41;;;4.22;100.00
40650;BME280;26342;42.826;23.992;2022-11-15T00:25:29;95987.53;;;4.32;100.00
40650;BME280;26342;42.826;23.992;2022-11-15T00:27:56;95982.84;;;4.34;100.00
40650;BME280;26342;42.826;23.992;2022-11-15T00:30:23;95980.63;;;4.31;100.00
40650;BME280;26342;42.826;23.992;2022-11-15T00:32:48;95967.19;;;4.32;100.00
40650;BME280;26342;42.826;23.992;2022-11-15T00:35:14;95978.81;;;4.44;100.00
40650;BME280;26342;42.826;23.992;2022-11-15T00:37:39;95981.03;;;4.47;100.00
40650;BME280;26342;42.826;23.992;2022-11-15T00:40:05;95974.13;;;4.46;100.00
40650;BME280;26342;42.826;23.992;2022-11-15T00:42:31;95969.88;;;4.52;100.00
40650;BME280;26342;42.826;23.992;2022-11-15T00:44:56;95971.28;;;4.55;100.00
40650;BME280;26342;42.826;23.992;2022-11-15T00:47:21;95969.88;;;4.52;100.00
40650;BME280;26342;42.826;23.992;2022-11-15T00:49:47;95962.53;;;4.47;100.00
40650;BME280;26342;42.826;23.992;2022-11-15T00:52:12;95960.53;;;4.43;100.00
40650;BME280;26342;42.826;23.992;2022-11-15T00:54:38;95964.78;;;4.37;100.00
40650;BME280;26342;42.826;23.992;2022-11-15T00:57:03;95962.13;;;4.17;100.00
40650;BME280;26342;42.826;23.992;2022-11-15T00:59:29;95957.84;;;4.16;100.00
40650;BME280;26342;42.826;23.992;2022-11-15T01:01:54;95964.53;;;3.99;100.00
40650;BME280;26342;42.826;23.992;2022-11-15T01:04:19;95957.41;;;3.86;100.00
40650;BME280;26342;42.826;23.992;2022-11-15T01:06:45;95961.47;;;3.89;100.00
40650;BME280;26342;42.826;23.992;2022-11-15T01:09:10;95963.72;;;3.92;100.00
40650;BME280;26342;42.826;23.992;2022-11-15T01:11:36;95947.66;;;3.93;100.00
40650;BME280;26342;42.826;23.992;2022-11-15T01:14:01;95962.31;;;3.96;100.00
40650;BME280;26342;42.826;23.992;2022-11-15T01:16:26;95957.00;;;4.03;100.00
40650;BME280;26342;42.826;23.992;2022-11-15T01:18:52;95958.22;;;3.93;100.00
40650;BME280;26342;42.826;23.992;2022-11-15T01:21:18;95966.75;;;3.89;100.00
40650;BME280;26342;42.826;23.992;2022-11-15T01:23:44;95955.56;;;3.80;100.00
40650;BME280;26342;42.826;23.992;2022-11-15T01:26:13;95960.63;;;3.75;100.00
40650;BME280;26342;42.826;23.992;2022-11-15T01:28:40;95971.97;;;3.69;100.00
40650;BME280;26342;42.826;23.992;2022-11-15T01:31:11;95964.47;;;3.66;100.00
40650;BME280;26342;42.826;23.992;2022-11-15T01:33:37;95966.69;;;3.69;100.00
40650;BME280;26342;42.826;23.992;2022-11-15T01:36:07;95968.97;;;3.72;100.00
40650;BME280;26342;42.826;23.992;2022-11-15T01:38:34;95964.09;;;3.76;100.00
40650;BME280;26342;42.826;23.992;2022-11-15T01:40:59;95953.72;;;3.74;100.00
40650;BME280;26342;42.826;23.992;2022-11-15T01:43:33;95956.75;;;3.71;100.00
40650;BME280;26342;42.826;23.992;2022-11-15T01:46:21;95957.75;;;3.70;100.00
40650;BME280;26342;42.826;23.992;2022-11-15T01:48:50;95955.53;;;3.67;100.00
40650;BME280;26342;42.826;23.992;2022-11-15T01:51:18;95956.31;;;3.61;100.00
40650;BME280;26342;42.826;23.992;2022-11-15T01:53:47;95962.78;;;3.45;100.00
40650;BME280;26342;42.826;23.992;2022-11-15T01:56:17;95949.75;;;3.37;100.00
40650;BME280;26342;42.826;23.992;2022-11-15T01:58:45;95947.91;;;3.31;100.00
40650;BME280;26342;42.826;23.992;2022-11-15T02:01:12;95951.16;;;3.26;100.00
40650;BME280;26342;42.826;23.992;2022-11-15T02:03:43;95949.03;;;3.15;100.00
40650;BME280;26342;42.826;23.992;2022-11-15T02:06:10;95944.59;;;3.16;100.00
40650;BME280;26342;42.826;23.992;2022-11-15T02:08:36;95943.78;;;3.15;100.00
40650;BME280;26342;42.826;23.992;2022-11-15T02:11:04;95941.78;;;3.17;100.00
40650;BME280;26342;42.826;23.992;2022-11-15T02:13:32;95943.03;;;3.28;100.00
40650;BME280;26342;42.826;23.992;2022-11-15T02:16:28;95949.38;;;3.40;100.00
40650;BME280;26342;42.826;23.992;2022-11-15T02:19:22;95938.25;;;3.51;100.00
40650;BME280;26342;42.826;23.992;2022-11-15T02:27:49;95938.22;;;3.45;100.00
40650;BME280;26342;42.826;23.992;2022-11-15T02:30:25;95941.69;;;3.52;100.00
40650;BME280;26342;42.826;23.992;2022-11-15T02:33:03;95932.34;;;3.49;100.00
40650;BME280;26342;42.826;23.992;2022-11-15T02:35:58;95935.59;;;3.51;100.00
40650;BME280;26342;42.826;23.992;2022-11-15T02:41:13;95939.63;;;3.41;100.00
40650;BME280;26342;42.826;23.992;2022-11-15T02:44:04;95939.44;;;3.42;100.00
40650;BME280;26342;42.826;23.992;2022-11-15T02:46:40;95932.53;;;3.41;100.00
40650;BME280;26342;42.826;23.992;2022-11-15T02:49:28;95936.81;;;3.49;100.00
40650;BME280;26342;42.826;23.992;2022-11-15T02:51:55;95934.16;;;3.42;100.00
40650;BME280;26342;42.826;23.992;2022-11-15T02:54:26;95949.38;;;3.40;100.00
40650;BME280;26342;42.826;23.992;2022-11-15T02:56:57;95947.09;;;3.30;100.00
40650;BME280;26342;42.826;23.992;2022-11-15T03:07:35;95934.84;;;3.10;100.00
40650;BME280;26342;42.826;23.992;2022-11-15T03:16:11;95937.28;;;2.76;100.00
40650;BME280;26342;42.826;23.992;2022-11-15T03:18:47;95926.94;;;2.75;100.00
40650;BME280;26342;42.826;23.992;2022-11-15T03:21:14;95924.94;;;2.77;100.00
40650;BME280;26342;42.826;23.992;2022-11-15T03:23:41;95920.34;;;2.86;100.00
40650;BME280;26342;42.826;23.992;2022-11-15T03:26:10;95906.25;;;2.72;100.00
40650;BME280;26342;42.826;23.992;2022-11-15T03:28:41;95908.53;;;2.82;100.00
40650;BME280;26342;42.826;23.992;2022-11-15T03:31:08;95913.56;;;2.76;100.00
40650;BME280;26342;42.826;23.992;2022-11-15T03:33:57;95905.81;;;2.68;100.00
40650;BME280;26342;42.826;23.992;2022-11-15T03:36:25;95905.81;;;2.68;100.00
40650;BME280;26342;42.826;23.992;2022-11-15T03:38:54;95899.78;;;2.74;100.00
40650;BME280;26342;42.826;23.992;2022-11-15T03:41:25;95890.91;;;2.82;100.00
40650;BME280;26342;42.826;23.992;2022-11-15T03:43:59;95901.88;;;2.92;100.00
40650;BME280;26342;42.826;23.992;2022-11-15T03:46:36;95895.19;;;2.90;100.00
40650;BME280;26342;42.826;23.992;2022-11-15T03:49:27;95893.56;;;2.89;100.00
40650;BME280;26342;42.826;23.992;2022-11-15T03:51:57;95879.59;;;2.88;100.00
40650;BME280;26342;42.826;23.992;2022-11-15T03:54:22;95880.63;;;2.94;100.00
40650;BME280;26342;42.826;23.992;2022-11-15T03:56:48;95876.19;;;3.01;100.00
40650;BME280;26342;42.826;23.992;2022-11-15T03:59:13;95869.88;;;2.95;100.00
40650;BME280;26342;42.826;23.992;2022-11-15T04:01:38;95879.66;;;3.01;100.00
40650;BME280;26342;42.826;23.992;2022-11-15T04:04:04;95879.47;;;3.10;100.00
40650;BME280;26342;42.826;23.992;2022-11-15T04:06:29;95874.78;;;3.05;100.00
40650;BME280;26342;42.826;23.992;2022-11-15T04:08:55;95868.09;;;3.02;100.00
40650;BME280;26342;42.826;23.992;2022-11-15T04:11:20;95867.47;;;3.00;100.00
40650;BME280;26342;42.826;23.992;2022-11-15T04:13:45;95866.28;;;3.10;100.00
40650;BME280;26342;42.826;23.992;2022-11-15T04:16:11;95861.22;;;3.15;100.00
40650;BME280;26342;42.826;23.992;2022-11-15T04:18:36;95858.81;;;3.26;100.00
40650;BME280;26342;42.826;23.992;2022-11-15T04:21:02;95867.13;;;3.30;100.00
40650;BME280;26342;42.826;23.992;2022-11-15T04:23:46;95868.75;;;3.31;100.00
40650;BME280;26342;42.826;23.992;2022-11-15T04:26:30;95857.59;;;3.29;100.00
40650;BME280;26342;42.826;23.992;2022-11-15T04:28:56;95859.22;;;3.30;100.00
40650;BME280;26342;42.826;23.992;2022-11-15T04:31:39;95856.63;;;3.36;100.00
40650;BME280;26342;42.826;23.992;2022-11-15T04:34:05;95839.53;;;3.19;100.00
40650;BME280;26342;42.826;23.992;2022-11-15T04:36:30;95850.09;;;3.19;100.00
40650;BME280;26342;42.826;23.992;2022-11-15T04:39:14;95850.69;;;3.21;100.00
40650;BME280;26342;42.826;23.992;2022-11-15T04:41:40;95847.66;;;3.24;100.00
40650;BME280;26342;42.826;23.992;2022-11-15T04:44:05;95843.22;;;3.25;100.00
40650;BME280;26342;42.826;23.992;2022-11-15T04:46:31;95842.41;;;3.24;100.00
40650;BME280;26342;42.826;23.992;2022-11-15T04:48:56;95846.25;;;3.28;100.00
40650;BME280;26342;42.826;23.992;2022-11-15T04:51:21;95844.22;;;3.30;100.00
40650;BME280;26342;42.826;23.992;2022-11-15T04:53:47;95845.63;;;3.26;100.00
40650;BME280;26342;42.826;23.992;2022-11-15T04:56:12;95838.53;;;3.27;100.00
40650;BME280;26342;42.826;23.992;2022-11-15T04:58:38;95835.69;;;3.28;100.00
40650;BME280;26342;42.826;23.992;2022-11-15T05:01:10;95835.47;;;3.17;100.00
40650;BME280;26342;42.826;23.992;2022-11-15T05:03:37;95850.25;;;3.11;100.00
40650;BME280;26342;42.826;23.992;2022-11-15T05:06:21;95841.75;;;3.22;100.00
40650;BME280;26342;42.826;23.992;2022-11-15T05:08:46;95843.03;;;3.33;100.00
40650;BME280;26342;42.826;23.992;2022-11-15T05:11:12;95844.03;;;3.39;100.00
40650;BME280;26342;42.826;23.992;2022-11-15T05:13:37;95836.31;;;3.37;100.00
40650;BME280;26342;42.826;23.992;2022-11-15T05:16:03;95842.38;;;3.31;100.00
40650;BME280;26342;42.826;23.992;2022-11-15T05:18:28;95847.84;;;3.23;100.00
40650;BME280;26342;42.826;23.992;2022-11-15T05:20:54;95843.22;;;3.25;100.00
40650;BME280;26342;42.826;23.992;2022-11-15T05:23:19;95848.03;;;3.15;100.00
40650;BME280;26342;42.826;23.992;2022-11-15T05:25:45;95846.19;;;3.02;100.00
40650;BME280;26342;42.826;23.992;2022-11-15T05:28:10;95857.75;;;3.01;100.00
40650;BME280;26342;42.826;23.992;2022-11-15T05:30:35;95869.28;;;2.93;100.00
40650;BME280;26342;42.826;23.992;2022-11-15T05:33:01;95861.47;;;2.72;100.00
40650;BME280;26342;42.826;23.992;2022-11-15T05:35:34;95861.22;;;2.67;100.00
40650;BME280;26342;42.826;23.992;2022-11-15T05:38:02;95867.13;;;2.69;100.00
40650;BME280;26342;42.826;23.992;2022-11-15T05:40:29;95863.09;;;2.73;100.00
40650;BME280;26342;42.826;23.992;2022-11-15T05:42:55;95853.97;;;2.75;100.00
40650;BME280;26342;42.826;23.992;2022-11-15T05:45:21;95854.25;;;2.87;100.00
40650;BME280;26342;42.826;23.992;2022-11-15T05:47:49;95852.81;;;2.85;100.00
40650;BME280;26342;42.826;23.992;2022-11-15T05:50:16;95860.28;;;2.81;100.00
40650;BME280;26342;42.826;23.992;2022-11-15T05:52:44;95858.47;;;2.82;100.00
40650;BME280;26342;42.826;23.992;2022-11-15T05:55:11;95853.19;;;2.82;100.00
40650;BME280;26342;42.826;23.992;2022-11-15T05:57:37;95858.09;;;2.91;100.00
40650;BME280;26342;42.826;23.992;2022-11-15T06:00:04;95852.66;;;2.99;100.00
40650;BME280;26342;42.826;23.992;2022-11-15T06:02:29;95857.84;;;2.79;100.00
40650;BME280;26342;42.826;23.992;2022-11-15T06:04:55;95860.41;;;2.66;100.00
40650;BME280;26342;42.826;23.992;2022-11-15T06:07:20;95863.66;;;2.68;100.00
40650;BME280;26342;42.826;23.992;2022-11-15T06:09:45;95866.94;;;2.70;100.00
40650;BME280;26342;42.826;23.992;2022-11-15T06:12:11;95868.81;;;2.83;100.00
40650;BME280;26342;42.826;23.992;2022-11-15T06:14:36;95860.47;;;2.79;100.00
40650;BME280;26342;42.826;23.992;2022-11-15T06:17:02;95862.91;;;2.81;100.00
40650;BME280;26342;42.826;23.992;2022-11-15T06:19:28;95861.69;;;2.84;100.00
40650;BME280;26342;42.826;23.992;2022-11-15T06:21:58;95863.34;;;2.85;100.00
40650;BME280;26342;42.826;23.992;2022-11-15T06:24:24;95859.03;;;2.70;100.00
40650;BME280;26342;42.826;23.992;2022-11-15T06:26:50;95863.31;;;2.78;100.00
40650;BME280;26342;42.826;23.992;2022-11-15T06:29:15;95858.03;;;2.71;100.00
40650;BME280;26342;42.826;23.992;2022-11-15T06:31:40;95857.03;;;2.79;100.00
40650;BME280;26342;42.826;23.992;2022-11-15T06:34:06;95855.25;;;2.86;100.00
40650;BME280;26342;42.826;23.992;2022-11-15T06:36:34;95859.91;;;2.91;100.00
40650;BME280;26342;42.826;23.992;2022-11-15T06:38:59;95863.94;;;2.80;100.00
40650;BME280;26342;42.826;23.992;2022-11-15T06:41:25;95860.63;;;2.65;100.00
40650;BME280;26342;42.826;23.992;2022-11-15T06:43:50;95862.69;;;2.69;100.00
40650;BME280;26342;42.826;23.992;2022-11-15T06:46:15;95863.31;;;2.78;100.00
40650;BME280;26342;42.826;23.992;2022-11-15T06:48:41;95855.03;;;2.88;100.00
40650;BME280;26342;42.826;23.992;2022-11-15T06:51:06;95846.94;;;2.89;100.00
40650;BME280;26342;42.826;23.992;2022-11-15T06:53:32;95847.53;;;2.91;100.00
40650;BME280;26342;42.826;23.992;2022-11-15T06:56:02;95842.72;;;3.01;100.00
40650;BME280;26342;42.826;23.992;2022-11-15T06:58:28;95841.75;;;3.16;100.00
40650;BME280;26342;42.826;23.992;2022-11-15T07:00:57;95839.13;;;3.22;100.00
40650;BME280;26342;42.826;23.992;2022-11-15T07:03:23;95840.56;;;3.25;100.00
40650;BME280;26342;42.826;23.992;2022-11-15T07:05:55;95839.13;;;3.22;100.00
40650;BME280;26342;42.826;23.992;2022-11-15T07:08:22;95830.00;;;3.18;100.00
40650;BME280;26342;42.826;23.992;2022-11-15T07:10:48;95830.38;;;3.15;100.00
40650;BME280;26342;42.826;23.992;2022-11-15T07:13:13;95827.16;;;3.20;100.00
40650;BME280;26342;42.826;23.992;2022-11-15T07:15:39;95832.47;;;3.33;100.00
40650;BME280;26342;42.826;23.992;2022-11-15T07:18:04;95826.56;;;3.38;100.00
40650;BME280;26342;42.826;23.992;2022-11-15T07:20:30;95818.47;;;3.46;100.00
40650;BME280;26342;42.826;23.992;2022-11-15T07:23:05;95822.56;;;3.48;100.00
40650;BME280;26342;42.826;23.992;2022-11-15T07:25:30;95825.59;;;3.58;100.00
40650;BME280;26342;42.826;23.992;2022-11-15T07:27:57;95811.38;;;3.59;100.00
40650;BME280;26342;42.826;23.992;2022-11-15T07:30:23;95815.25;;;3.63;100.00
40650;BME280;26342;42.826;23.992;2022-11-15T07:32:59;95814.22;;;3.71;100.00
40650;BME280;26342;42.826;23.992;2022-11-15T07:35:26;95813.63;;;3.69;100.00
40650;BME280;26342;42.826;23.992;2022-11-15T07:37:59;95816.84;;;3.71;100.00
40650;BME280;26342;42.826;23.992;2022-11-15T07:40:29;95815.06;;;3.72;100.00
40650;BME280;26342;42.826;23.992;2022-11-15T07:43:02;95808.34;;;3.76;100.00
40650;BME280;26342;42.826;23.992;2022-11-15T07:45:28;95810.78;;;3.84;100.00
40650;BME280;26342;42.826;23.992;2022-11-15T07:47:55;95805.72;;;3.89;100.00
40650;BME280;26342;42.826;23.992;2022-11-15T07:50:22;95805.50;;;3.97;100.00
40650;BME280;26342;42.826;23.992;2022-11-15T07:52:53;95798.78;;;4.08;100.00
40650;BME280;26342;42.826;23.992;2022-11-15T07:55:18;95808.53;;;4.20;100.00
40650;BME280;26342;42.826;23.992;2022-11-15T07:57:44;95805.66;;;4.29;100.00
40650;BME280;26342;42.826;23.992;2022-11-15T08:00:10;95813.75;;;4.34;100.00
40650;BME280;26342;42.826;23.992;2022-11-15T08:02:35;95813.75;;;4.40;100.00
40650;BME280;26342;42.826;23.992;2022-11-15T08:05:01;95811.09;;;4.40;100.00
40650;BME280;26342;42.826;23.992;2022-11-15T08:07:29;95812.56;;;4.36;100.00
40650;BME280;26342;42.826;23.992;2022-11-15T08:09:55;95804.63;;;4.43;100.00
40650;BME280;26342;42.826;23.992;2022-11-15T08:12:21;95809.09;;;4.36;100.00
40650;BME280;26342;42.826;23.992;2022-11-15T08:14:46;95814.97;;;4.44;100.00
40650;BME280;26342;42.826;23.992;2022-11-15T08:17:12;95812.31;;;4.44;100.00
40650;BME280;26342;42.826;23.992;2022-11-15T08:19:37;95800.53;;;4.47;100.00
40650;BME280;26342;42.826;23.992;2022-11-15T08:22:03;95802.34;;;4.53;100.00
40650;BME280;26342;42.826;23.992;2022-11-15T08:24:28;95793.22;;;4.42;100.00
40650;BME280;26342;42.826;23.992;2022-11-15T08:26:53;95806.81;;;4.53;100.00
40650;BME280;26342;42.826;23.992;2022-11-15T08:29:19;95790.75;;;4.47;100.00
40650;BME280;26342;42.826;23.992;2022-11-15T08:31:44;95788.13;;;4.47;100.00
40650;BME280;26342;42.826;23.992;2022-11-15T08:34:10;95789.69;;;4.62;100.00
40650;BME280;26342;42.826;23.992;2022-11-15T08:36:36;95790.28;;;4.64;100.00
40650;BME280;26342;42.826;23.992;2022-11-15T08:39:02;95788.66;;;4.69;100.00
40650;BME280;26342;42.826;23.992;2022-11-15T08:41:36;95788.41;;;4.84;100.00
40650;BME280;26342;42.826;23.992;2022-11-15T08:44:02;95783.06;;;4.91;100.00
40650;BME280;26342;42.826;23.992;2022-11-15T08:46:27;95776.69;;;5.05;100.00
40650;BME280;26342;42.826;23.992;2022-11-15T08:48:53;95769.31;;;5.14;100.00
40650;BME280;26342;42.826;23.992;2022-11-15T08:51:18;95762.91;;;5.28;100.00
40650;BME280;26342;42.826;23.992;2022-11-15T08:53:44;95759.72;;;5.44;100.00
40650;BME280;26342;42.826;23.992;2022-11-15T08:56:10;95752.91;;;5.62;100.00
40650;BME280;26342;42.826;23.992;2022-11-15T08:58:37;95746.53;;;5.69;100.00
40650;BME280;26342;42.826;23.992;2022-11-15T09:01:03;95741.28;;;5.87;100.00
40650;BME280;26342;42.826;23.992;2022-11-15T09:03:29;95743.22;;;5.99;100.00
40650;BME280;26342;42.826;23.992;2022-11-15T09:05:56;95737.00;;;6.30;100.00
40650;BME280;26342;42.826;23.992;2022-11-15T09:08:22;95723.75;;;6.78;100.00
40650;BME280;26342;42.826;23.992;2022-11-15T09:10:47;95724.03;;;7.18;100.00
40650;BME280;26342;42.826;23.992;2022-11-15T09:13:13;95718.00;;;7.53;100.00
40650;BME280;26342;42.826;23.992;2022-11-15T09:15:39;95717.19;;;7.88;100.00
40650;BME280;26342;42.826;23.992;2022-11-15T09:18:04;95710.84;;;8.12;100.00
40650;BME280;26342;42.826;23.992;2022-11-15T09:20:30;95709.44;;;8.33;100.00
40650;BME280;26342;42.826;23.992;2022-11-15T09:22:59;95701.44;;;8.56;100.00
40650;BME280;26342;42.826;23.992;2022-11-15T09:25:25;95702.72;;;8.82;100.00
40650;BME280;26342;42.826;23.992;2022-11-15T09:27:50;95687.72;;;9.05;100.00
40650;BME280;26342;42.826;23.992;2022-11-15T09:30:16;95689.28;;;9.34;100.00
40650;BME280;26342;42.826;23.992;2022-11-15T09:32:41;95689.94;;;9.58;100.00
40650;BME280;26342;42.826;23.992;2022-11-15T09:35:06;95690.84;;;9.64;100.00
40650;BME280;26342;42.826;23.992;2022-11-15T09:37:32;95681.22;;;9.63;100.00
40650;BME280;26342;42.826;23.992;2022-11-15T09:39:57;95678.78;;;9.61;100.00
40650;BME280;26342;42.826;23.992;2022-11-15T09:42:30;95678.69;;;9.90;100.00
40650;BME280;26342;42.826;23.992;2022-11-15T09:45:36;95680.03;;;10.09;100.00
40650;BME280;26342;42.826;23.992;2022-11-15T09:51:04;95664.19;;;10.41;100.00
40650;BME280;26342;42.826;23.992;2022-11-15T09:53:36;95651.66;;;10.42;100.00
40650;BME280;26342;42.826;23.992;2022-11-15T09:56:14;95656.81;;;10.48;100.00
40650;BME280;26342;42.826;23.992;2022-11-15T10:04:26;95634.50;;;10.81;100.00
40650;BME280;26342;42.826;23.992;2022-11-15T10:09:50;95628.53;;;11.28;96.72
40650;BME280;26342;42.826;23.992;2022-11-15T10:12:17;95622.78;;;11.41;95.32
40650;BME280;26342;42.826;23.992;2022-11-15T10:14:43;95629.78;;;11.53;96.39
40650;BME280;26342;42.826;23.992;2022-11-15T10:20:29;95614.88;;;11.94;95.59
40650;BME280;26342;42.826;23.992;2022-11-15T10:23:05;95607.75;;;12.10;93.49
40650;BME280;26342;42.826;23.992;2022-11-15T10:25:34;95606.28;;;11.87;94.24
40650;BME280;26342;42.826;23.992;2022-11-15T10:30:34;95598.66;;;12.16;93.43
40650;BME280;26342;42.826;23.992;2022-11-15T10:33:15;95590.88;;;12.14;95.44
40650;BME280;26342;42.826;23.992;2022-11-15T10:35:42;95586.69;;;12.39;92.57
40650;BME280;26342;42.826;23.992;2022-11-15T10:38:10;95589.91;;;12.36;91.31
40650;BME280;26342;42.826;23.992;2022-11-15T10:40:37;95575.75;;;12.45;93.43
40650;BME280;26342;42.826;23.992;2022-11-15T10:43:14;95568.56;;;12.56;94.08
40650;BME280;26342;42.826;23.992;2022-11-15T10:45:40;95565.34;;;12.54;93.11
40650;BME280;26342;42.826;23.992;2022-11-15T10:50:41;95569.34;;;12.46;90.70
40650;BME280;26342;42.826;23.992;2022-11-15T10:55:49;95560.34;;;12.05;94.82
40650;BME280;26342;42.826;23.992;2022-11-15T10:58:54;95561.34;;;11.89;97.21
40650;BME280;26342;42.826;23.992;2022-11-15T11:01:25;95555.06;;;11.68;99.14
40650;BME280;26342;42.826;23.992;2022-11-15T11:04:17;95548.09;;;11.67;99.98
40650;BME280;26342;42.826;23.992;2022-11-15T11:06:51;95551.66;;;11.78;99.28
40650;BME280;26342;42.826;23.992;2022-11-15T11:09:43;95538.31;;;11.83;100.00
40650;BME280;26342;42.826;23.992;2022-11-15T11:12:11;95534.88;;;11.92;100.00
40650;BME280;26342;42.826;23.992;2022-11-15T11:14:38;95536.75;;;11.92;100.00
40650;BME280;26342;42.826;23.992;2022-11-15T11:17:32;95523.16;;;11.98;100.00
40650;BME280;26342;42.826;23.992;2022-11-15T11:28:48;95498.69;;;11.74;100.00
40650;BME280;26342;42.826;23.992;2022-11-15T11:31:43;95494.63;;;11.67;100.00
40650;BME280;26342;42.826;23.992;2022-11-15T11:45:21;95481.41;;;11.40;100.00
40650;BME280;26342;42.826;23.992;2022-11-15T11:48:13;95475.03;;;11.46;100.00
40650;BME280;26342;42.826;23.992;2022-11-15T11:50:44;95463.47;;;11.30;100.00
40650;BME280;26342;42.826;23.992;2022-11-15T11:53:15;95462.66;;;11.30;100.00
40650;BME280;26342;42.826;23.992;2022-11-15T12:00:39;95460.72;;;11.20;100.00
40650;BME280;26342;42.826;23.992;2022-11-15T12:06:01;95453.78;;;11.19;100.00
40650;BME280;26342;42.826;23.992;2022-11-15T12:09:20;95452.69;;;11.15;100.00
40650;BME280;26342;42.826;23.992;2022-11-15T12:14:33;95450.16;;;10.93;100.00
40650;BME280;26342;42.826;23.992;2022-11-15T12:17:00;95444.81;;;10.93;100.00
40650;BME280;26342;42.826;23.992;2022-11-15T12:19:26;95445.31;;;10.90;100.00
40650;BME280;26342;42.826;23.992;2022-11-15T12:22:00;95443.41;;;10.85;100.00
40650;BME280;26342;42.826;23.992;2022-11-15T12:24:39;95443.69;;;10.84;100.00
40650;BME280;26342;42.826;23.992;2022-11-15T12:29:42;95443.81;;;10.67;100.00
40650;BME280;26342;42.826;23.992;2022-11-15T12:32:25;95433.09;;;10.62;100.00
40650;BME280;26342;42.826;23.992;2022-11-15T12:34:53;95435.97;;;10.55;100.00
40650;BME280;26342;42.826;23.992;2022-11-15T12:37:55;95434.03;;;10.46;100.00
40650;BME280;26342;42.826;23.992;2022-11-15T12:40:26;95429.09;;;10.27;100.00
40650;BME280;26342;42.826;23.992;2022-11-15T12:45:44;95428.69;;;10.19;100.00
40650;BME280;26342;42.826;23.992;2022-11-15T13:07:03;95438.47;;;9.59;100.00
40650;BME280;26342;42.826;23.992;2022-11-15T13:14:58;95436.66;;;9.43;100.00
40650;BME280;26342;42.826;23.992;2022-11-15T13:17:43;95428.34;;;9.39;100.00
40650;BME280;26342;42.826;23.992;2022-11-15T13:22:47;95427.88;;;9.42;100.00
40650;BME280;26342;42.826;23.992;2022-11-15T13:28:49;95411.50;;;9.12;100.00
40650;BME280;26342;42.826;23.992;2022-11-15T13:34:14;95421.66;;;9.15;100.00
40650;BME280;26342;42.826;23.992;2022-11-15T13:36:41;95421.81;;;9.08;100.00
40650;BME280;26342;42.826;23.992;2022-11-15T13:39:31;95418.31;;;9.03;100.00
40650;BME280;26342;42.826;23.992;2022-11-15T13:41:57;95427.19;;;8.91;100.00
40650;BME280;26342;42.826;23.992;2022-11-15T13:47:13;95422.28;;;8.83;100.00
40650;BME280;26342;42.826;23.992;2022-11-15T13:49:39;95415.47;;;8.71;100.00
40650;BME280;26342;42.826;23.992;2022-11-15T13:52:07;95426.34;;;8.69;100.00
40650;BME280;26342;42.826;23.992;2022-11-15T13:54:37;95414.56;;;8.65;100.00
40650;BME280;26342;42.826;23.992;2022-11-15T13:57:23;95418.19;;;8.59;100.00
40650;BME280;26342;42.826;23.992;2022-11-15T13:59:51;95417.88;;;8.55;100.00
40650;BME280;26342;42.826;23.992;2022-11-15T14:02:21;95430.38;;;8.55;100.00
40650;BME280;26342;42.826;23.992;2022-11-15T14:04:55;95422.06;;;8.51;100.00
40650;BME280;26342;42.826;23.992;2022-11-15T14:07:24;95424.16;;;8.49;100.00
40650;BME280;26342;42.826;23.992;2022-11-15T14:09:50;95424.56;;;8.41;100.00
40650;BME280;26342;42.826;23.992;2022-11-15T14:12:31;95424.31;;;8.43;100.00
40650;BME280;26342;42.826;23.992;2022-11-15T14:17:49;95420.34;;;8.28;100.00
40650;BME280;26342;42.826;23.992;2022-11-15T14:22:54;95420.06;;;8.13;100.00
40650;BME280;26342;42.826;23.992;2022-11-15T14:25:27;95417.81;;;8.05;100.00
40650;BME280;26342;42.826;23.992;2022-11-15T14:30:38;95423.09;;;7.88;100.00
40650;BME280;26342;42.826;23.992;2022-11-15T14:33:35;95416.09;;;7.82;100.00
40650;BME280;26342;42.826;23.992;2022-11-15T14:36:18;95420.75;;;7.75;100.00
40650;BME280;26342;42.826;23.992;2022-11-15T14:38:45;95422.25;;;7.71;100.00
40650;BME280;26342;42.826;23.992;2022-11-15T14:41:24;95422.19;;;7.54;100.00
40650;BME280;26342;42.826;23.992;2022-11-15T14:43:52;95433.31;;;7.51;100.00
40650;BME280;26342;42.826;23.992;2022-11-15T14:46:18;95426.84;;;7.47;100.00
40650;BME280;26342;42.826;23.992;2022-11-15T14:48:43;95429.84;;;7.50;100.00
40650;BME280;26342;42.826;23.992;2022-11-15T14:51:13;95425.34;;;7.51;100.00
40650;BME280;26342;42.826;23.992;2022-11-15T14:53:40;95413.44;;;7.42;100.00
40650;BME280;26342;42.826;23.992;2022-11-15T14:56:06;95426.03;;;7.46;100.00
40650;BME280;26342;42.826;23.992;2022-11-15T14:58:31;95426.16;;;7.40;100.00
40650;BME280;26342;42.826;23.992;2022-11-15T15:00:57;95428.00;;;7.39;100.00
40650;BME280;26342;42.826;23.992;2022-11-15T15:03:22;95420.41;;;7.31;100.00
40650;BME280;26342;42.826;23.992;2022-11-15T15:05:48;95422.25;;;7.31;100.00
40650;BME280;26342;42.826;23.992;2022-11-15T15:08:13;95428.97;;;7.21;100.00